Etusivu
METAR-TAF:

METAR-TAF

Lentoasemat :

Damaskoksen kansainvälinen lentoasema

Damaskos, Syyria

Leveyspiiri: 33-25N, Pituuspiiri: 036-31E, korkeus merenpinnasta: 608 m

Tämänhetkinen sää

Tämä raportti tehtiin 54 minuuttia sitten, kello 15.00 UTC
Tuuli 5 kn lännestä
Lämpötila 20°C
Kosteus 30%
Ilmanpaine 1022 hPa
Näkyvyys 10 km tai enemmän
ei pilviä alle 1500 m:ssä eikä cumulonimbus-pilviä

METAR: OSDI 231500Z 27005KT CAVOK 20/02 Q1022

Aika: 18:54 (15:54 UTC)

Sääennuste

Ennuste voimassa 23. päivästä klo 12 UTC - 24. päivään klo 18 UTC
Tuuli 10 kn lounaasta
Näkyvyys 10 km tai enemmän
Muutamia pilviä 3000 ft:n korkeudessa
Hajanaisia pilviä 10000 ft:n korkeudessa
Ajoittain
23. päivästä klo 20 UTC - 24. päivään klo 10 UTC
Tuuli 3 kn eri suunnista
Näkyvyys 10 km tai enemmän
ei pilviä alle 1500 m:ssä eikä cumulonimbus-pilviä

TAF: OSDI 2312/2418 22010KT 9999 FEW030 SCT100 TEMPO 2320/2410 VRB03KT CAVOK

Säähavainnot ja -ennusteet yli 4000 lentoasemalta (METAR- ja TAF-raportit).

Käytössä olevat sääasemat on merkitty karttaan keltaisilla ja punaisilla pisteillä.

Aseta hiiri pisteen päälle nähdäksesi sääaseman nimen.

Klikkaa sitten nähdäksesi säähavainnot ja -ennusteet.

Kartan vaihtaminen: klikkaa mustalla rastilla varustettuja vihreitä pisteitä, niin voit zoomata sisään; viivalla varustettua vihreää pistettä, niin voit zoomata ulos tai vihreitä nuolia, niin pääset viereisille kartoille.


METAR-TAF: